sensor_id;sensor_type;location;lat;lon;timestamp;P1;durP1;ratioP1;P2;durP2;ratioP2
57335;SDS011;43171;50.994;18.204;2024-01-06T00:05:39;53.70;;;31.90;;
57335;SDS011;43171;50.994;18.204;2024-01-06T00:15:23;51.10;;;25.80;;
57335;SDS011;43171;50.994;18.204;2024-01-06T00:25:06;62.60;;;31.80;;
57335;SDS011;43171;50.994;18.204;2024-01-06T00:29:58;87.20;;;48.70;;
57335;SDS011;43171;50.994;18.204;2024-01-06T00:39:40;61.70;;;33.70;;
57335;SDS011;43171;50.994;18.204;2024-01-06T00:49:21;54.80;;;27.30;;
57335;SDS011;43171;50.994;18.204;2024-01-06T00:51:47;82.50;;;46.90;;
57335;SDS011;43171;50.994;18.204;2024-01-06T01:01:29;60.50;;;30.50;;
57335;SDS011;43171;50.994;18.204;2024-01-06T01:11:11;71.00;;;30.50;;
57335;SDS011;43171;50.994;18.204;2024-01-06T01:20:53;64.70;;;30.60;;
57335;SDS011;43171;50.994;18.204;2024-01-06T01:30:36;61.60;;;32.80;;
57335;SDS011;43171;50.994;18.204;2024-01-06T01:35:27;96.90;;;50.70;;
57335;SDS011;43171;50.994;18.204;2024-01-06T01:45:09;54.40;;;25.50;;
57335;SDS011;43171;50.994;18.204;2024-01-06T01:54:51;66.00;;;31.30;;
57335;SDS011;43171;50.994;18.204;2024-01-06T02:04:34;71.50;;;35.20;;
57335;SDS011;43171;50.994;18.204;2024-01-06T02:14:19;83.30;;;29.60;;
57335;SDS011;43171;50.994;18.204;2024-01-06T02:24:01;73.30;;;27.50;;
57335;SDS011;43171;50.994;18.204;2024-01-06T02:33:43;60.30;;;28.00;;
57335;SDS011;43171;50.994;18.204;2024-01-06T02:43:24;63.00;;;26.30;;
57335;SDS011;43171;50.994;18.204;2024-01-06T02:53:06;65.20;;;25.80;;
57335;SDS011;43171;50.994;18.204;2024-01-06T02:55:32;98.20;;;47.00;;
57335;SDS011;43171;50.994;18.204;2024-01-06T03:05:13;69.20;;;28.40;;
57335;SDS011;43171;50.994;18.204;2024-01-06T03:14:55;61.10;;;29.00;;
57335;SDS011;43171;50.994;18.204;2024-01-06T03:24:40;47.20;;;23.60;;
57335;SDS011;43171;50.994;18.204;2024-01-06T03:34:22;56.40;;;25.90;;
57335;SDS011;43171;50.994;18.204;2024-01-06T03:44:05;63.60;;;29.40;;
57335;SDS011;43171;50.994;18.204;2024-01-06T03:53:48;48.80;;;24.90;;
57335;SDS011;43171;50.994;18.204;2024-01-06T04:03:30;50.20;;;19.60;;
57335;SDS011;43171;50.994;18.204;2024-01-06T04:13:12;42.60;;;23.70;;
57335;SDS011;43171;50.994;18.204;2024-01-06T04:22:54;42.30;;;21.80;;
57335;SDS011;43171;50.994;18.204;2024-01-06T04:32:38;31.40;;;18.20;;
57335;SDS011;43171;50.994;18.204;2024-01-06T04:42:20;36.80;;;20.90;;
57335;SDS011;43171;50.994;18.204;2024-01-06T04:52:04;37.70;;;22.00;;
57335;SDS011;43171;50.994;18.204;2024-01-06T05:01:46;31.80;;;18.00;;
57335;SDS011;43171;50.994;18.204;2024-01-06T05:11:29;38.60;;;20.40;;
57335;SDS011;43171;50.994;18.204;2024-01-06T05:21:10;32.40;;;16.50;;
57335;SDS011;43171;50.994;18.204;2024-01-06T05:30:52;33.00;;;19.90;;
57335;SDS011;43171;50.994;18.204;2024-01-06T05:40:34;29.30;;;16.90;;
57335;SDS011;43171;50.994;18.204;2024-01-06T05:45:25;44.10;;;28.30;;
57335;SDS011;43171;50.994;18.204;2024-01-06T05:55:07;32.10;;;17.40;;
57335;SDS011;43171;50.994;18.204;2024-01-06T06:12:07;21.60;;;13.20;;
57335;SDS011;43171;50.994;18.204;2024-01-06T06:21:49;34.80;;;21.60;;
57335;SDS011;43171;50.994;18.204;2024-01-06T06:31:30;29.30;;;17.00;;
57335;SDS011;43171;50.994;18.204;2024-01-06T06:41:12;26.20;;;14.90;;
57335;SDS011;43171;50.994;18.204;2024-01-06T06:43:37;43.20;;;27.50;;
57335;SDS011;43171;50.994;18.204;2024-01-06T06:53:20;24.50;;;11.80;;
57335;SDS011;43171;50.994;18.204;2024-01-06T07:03:03;32.60;;;18.20;;
57335;SDS011;43171;50.994;18.204;2024-01-06T07:12:45;11.50;;;8.30;;
57335;SDS011;43171;50.994;18.204;2024-01-06T07:22:29;37.00;;;22.90;;
57335;SDS011;43171;50.994;18.204;2024-01-06T07:32:11;12.90;;;9.50;;
57335;SDS011;43171;50.994;18.204;2024-01-06T07:41:53;38.80;;;18.20;;
57335;SDS011;43171;50.994;18.204;2024-01-06T07:51:43;28.80;;;17.20;;
57335;SDS011;43171;50.994;18.204;2024-01-06T08:01:26;29.20;;;17.70;;
57335;SDS011;43171;50.994;18.204;2024-01-06T08:03:51;39.70;;;27.10;;
57335;SDS011;43171;50.994;18.204;2024-01-06T08:13:33;24.50;;;15.10;;
57335;SDS011;43171;50.994;18.204;2024-01-06T08:23:15;30.60;;;17.80;;
57335;SDS011;43171;50.994;18.204;2024-01-06T08:40:16;25.70;;;12.60;;
57335;SDS011;43171;50.994;18.204;2024-01-06T08:50:00;28.10;;;15.30;;
57335;SDS011;43171;50.994;18.204;2024-01-06T08:59:41;25.80;;;15.10;;
57335;SDS011;43171;50.994;18.204;2024-01-06T09:09:23;24.10;;;16.00;;
57335;SDS011;43171;50.994;18.204;2024-01-06T09:19:07;24.50;;;14.50;;
57335;SDS011;43171;50.994;18.204;2024-01-06T09:28:50;18.50;;;12.50;;
57335;SDS011;43171;50.994;18.204;2024-01-06T09:38:34;24.50;;;13.80;;
57335;SDS011;43171;50.994;18.204;2024-01-06T09:48:40;34.30;;;17.10;;
57335;SDS011;43171;50.994;18.204;2024-01-06T09:58:28;15.10;;;7.60;;
57335;SDS011;43171;50.994;18.204;2024-01-06T10:08:17;30.70;;;14.60;;
57335;SDS011;43171;50.994;18.204;2024-01-06T10:18:01;29.00;;;16.30;;
57335;SDS011;43171;50.994;18.204;2024-01-06T10:27:46;29.30;;;14.70;;
57335;SDS011;43171;50.994;18.204;2024-01-06T10:37:31;25.00;;;14.50;;
57335;SDS011;43171;50.994;18.204;2024-01-06T10:40:07;35.90;;;22.40;;
57335;SDS011;43171;50.994;18.204;2024-01-06T10:49:55;26.10;;;13.80;;
57335;SDS011;43171;50.994;18.204;2024-01-06T10:59:42;35.40;;;19.70;;
57335;SDS011;43171;50.994;18.204;2024-01-06T11:09:28;43.30;;;21.60;;
57335;SDS011;43171;50.994;18.204;2024-01-06T11:29:48;50.70;;;27.80;;
57335;SDS011;43171;50.994;18.204;2024-01-06T11:39:42;41.90;;;20.50;;
57335;SDS011;43171;50.994;18.204;2024-01-06T11:49:38;53.90;;;27.30;;
57335;SDS011;43171;50.994;18.204;2024-01-06T11:59:22;52.10;;;29.10;;
57335;SDS011;43171;50.994;18.204;2024-01-06T12:09:06;51.00;;;26.30;;
57335;SDS011;43171;50.994;18.204;2024-01-06T12:18:55;51.60;;;26.40;;
57335;SDS011;43171;50.994;18.204;2024-01-06T12:28:39;61.30;;;29.50;;
57335;SDS011;43171;50.994;18.204;2024-01-06T12:38:24;60.80;;;30.80;;
57335;SDS011;43171;50.994;18.204;2024-01-06T12:48:10;63.20;;;29.60;;
57335;SDS011;43171;50.994;18.204;2024-01-06T12:57:55;65.70;;;30.70;;
57335;SDS011;43171;50.994;18.204;2024-01-06T13:07:38;64.20;;;29.30;;
57335;SDS011;43171;50.994;18.204;2024-01-06T13:17:20;44.80;;;24.20;;
57335;SDS011;43171;50.994;18.204;2024-01-06T13:27:05;44.80;;;25.10;;
57335;SDS011;43171;50.994;18.204;2024-01-06T13:36:50;36.00;;;20.30;;
57335;SDS011;43171;50.994;18.204;2024-01-06T13:46:39;30.70;;;19.00;;
57335;SDS011;43171;50.994;18.204;2024-01-06T13:56:25;48.20;;;22.40;;
57335;SDS011;43171;50.994;18.204;2024-01-06T14:06:07;23.10;;;9.90;;
57335;SDS011;43171;50.994;18.204;2024-01-06T14:15:51;32.20;;;18.40;;
57335;SDS011;43171;50.994;18.204;2024-01-06T14:25:35;33.90;;;20.50;;
57335;SDS011;43171;50.994;18.204;2024-01-06T14:35:17;34.70;;;18.60;;
57335;SDS011;43171;50.994;18.204;2024-01-06T14:40:11;49.90;;;32.40;;
57335;SDS011;43171;50.994;18.204;2024-01-06T14:42:37;50.20;;;32.00;;
57335;SDS011;43171;50.994;18.204;2024-01-06T14:52:20;34.50;;;21.90;;
57335;SDS011;43171;50.994;18.204;2024-01-06T15:02:02;42.00;;;23.50;;
57335;SDS011;43171;50.994;18.204;2024-01-06T15:11:45;35.90;;;19.10;;
57335;SDS011;43171;50.994;18.204;2024-01-06T15:21:28;39.00;;;20.90;;
57335;SDS011;43171;50.994;18.204;2024-01-06T15:31:15;36.90;;;19.40;;
57335;SDS011;43171;50.994;18.204;2024-01-06T15:48:16;33.10;;;19.00;;
57335;SDS011;43171;50.994;18.204;2024-01-06T15:50:41;46.30;;;30.60;;
57335;SDS011;43171;50.994;18.204;2024-01-06T16:00:24;41.00;;;20.80;;
57335;SDS011;43171;50.994;18.204;2024-01-06T16:10:07;36.90;;;20.80;;
57335;SDS011;43171;50.994;18.204;2024-01-06T16:19:50;30.40;;;18.20;;
57335;SDS011;43171;50.994;18.204;2024-01-06T16:29:32;36.40;;;20.50;;
57335;SDS011;43171;50.994;18.204;2024-01-06T16:46:32;27.90;;;19.00;;
57335;SDS011;43171;50.994;18.204;2024-01-06T16:56:17;37.20;;;21.60;;
57335;SDS011;43171;50.994;18.204;2024-01-06T17:05:59;34.50;;;19.20;;
57335;SDS011;43171;50.994;18.204;2024-01-06T17:23:03;38.70;;;23.00;;
57335;SDS011;43171;50.994;18.204;2024-01-06T17:32:47;26.30;;;16.10;;
57335;SDS011;43171;50.994;18.204;2024-01-06T17:42:30;31.40;;;19.80;;
57335;SDS011;43171;50.994;18.204;2024-01-06T17:52:14;32.00;;;20.70;;
57335;SDS011;43171;50.994;18.204;2024-01-06T18:01:56;34.10;;;20.70;;
57335;SDS011;43171;50.994;18.204;2024-01-06T18:11:47;29.10;;;17.40;;
57335;SDS011;43171;50.994;18.204;2024-01-06T18:21:32;37.60;;;20.20;;
57335;SDS011;43171;50.994;18.204;2024-01-06T18:31:14;27.70;;;18.30;;
57335;SDS011;43171;50.994;18.204;2024-01-06T18:40:57;36.90;;;20.00;;
57335;SDS011;43171;50.994;18.204;2024-01-06T18:50:41;33.10;;;17.90;;
57335;SDS011;43171;50.994;18.204;2024-01-06T19:00:29;30.20;;;20.40;;
57335;SDS011;43171;50.994;18.204;2024-01-06T19:10:12;16.80;;;11.80;;
57335;SDS011;43171;50.994;18.204;2024-01-06T19:19:54;24.70;;;16.50;;
57335;SDS011;43171;50.994;18.204;2024-01-06T19:29:36;27.50;;;15.90;;
57335;SDS011;43171;50.994;18.204;2024-01-06T19:39:23;19.80;;;12.00;;
57335;SDS011;43171;50.994;18.204;2024-01-06T19:49:08;34.00;;;19.90;;
57335;SDS011;43171;50.994;18.204;2024-01-06T19:58:51;25.70;;;14.70;;
57335;SDS011;43171;50.994;18.204;2024-01-06T20:08:33;24.40;;;15.90;;
57335;SDS011;43171;50.994;18.204;2024-01-06T20:10:59;31.20;;;22.30;;
57335;SDS011;43171;50.994;18.204;2024-01-06T20:20:48;28.10;;;16.50;;
57335;SDS011;43171;50.994;18.204;2024-01-06T20:30:33;24.60;;;13.80;;
57335;SDS011;43171;50.994;18.204;2024-01-06T20:40:17;21.20;;;11.50;;
57335;SDS011;43171;50.994;18.204;2024-01-06T20:50:00;12.30;;;7.90;;
57335;SDS011;43171;50.994;18.204;2024-01-06T20:59:42;15.30;;;9.50;;
57335;SDS011;43171;50.994;18.204;2024-01-06T21:09:28;13.60;;;9.70;;
57335;SDS011;43171;50.994;18.204;2024-01-06T21:19:12;17.10;;;9.30;;
57335;SDS011;43171;50.994;18.204;2024-01-06T21:28:56;14.70;;;10.50;;
57335;SDS011;43171;50.994;18.204;2024-01-06T21:38:41;15.80;;;10.90;;
57335;SDS011;43171;50.994;18.204;2024-01-06T21:48:26;14.90;;;8.20;;
57335;SDS011;43171;50.994;18.204;2024-01-06T21:58:12;18.80;;;11.60;;
57335;SDS011;43171;50.994;18.204;2024-01-06T22:00:37;21.90;;;14.70;;
57335;SDS011;43171;50.994;18.204;2024-01-06T22:10:21;15.70;;;8.80;;
57335;SDS011;43171;50.994;18.204;2024-01-06T22:20:05;18.00;;;9.00;;
57335;SDS011;43171;50.994;18.204;2024-01-06T22:29:49;14.80;;;8.70;;
57335;SDS011;43171;50.994;18.204;2024-01-06T22:39:43;13.60;;;6.60;;
57335;SDS011;43171;50.994;18.204;2024-01-06T22:49:25;15.90;;;8.80;;
57335;SDS011;43171;50.994;18.204;2024-01-06T22:59:06;14.10;;;7.30;;
57335;SDS011;43171;50.994;18.204;2024-01-06T23:08:49;11.00;;;6.70;;
57335;SDS011;43171;50.994;18.204;2024-01-06T23:11:14;20.30;;;13.60;;
57335;SDS011;43171;50.994;18.204;2024-01-06T23:20:58;18.80;;;9.10;;
57335;SDS011;43171;50.994;18.204;2024-01-06T23:28:17;19.60;;;12.90;;
57335;SDS011;43171;50.994;18.204;2024-01-06T23:37:59;12.40;;;7.50;;
57335;SDS011;43171;50.994;18.204;2024-01-06T23:47:41;13.70;;;8.50;;
57335;SDS011;43171;50.994;18.204;2024-01-06T23:57:24;10.10;;;6.40;;
